createdAt,value
2023-04-09T00:04:16.028Z,21.30
2023-04-09T00:09:19.020Z,24.00
2023-04-09T00:14:21.591Z,22.90
2023-04-09T00:19:24.973Z,21.90
2023-04-09T00:24:27.495Z,21.40
2023-04-09T00:29:30.073Z,25.10
2023-04-09T00:34:32.628Z,24.20
2023-04-09T00:39:35.438Z,22.50
2023-04-09T00:44:38.078Z,22.60
2023-04-09T00:49:40.934Z,24.30
2023-04-09T00:54:43.567Z,28.40
2023-04-09T00:59:46.377Z,24.30
2023-04-09T01:04:50.392Z,24.20
2023-04-09T01:10:17.005Z,31.70
2023-04-09T01:15:24.944Z,24.50
2023-04-09T01:20:39.434Z,26.80
2023-04-09T01:25:56.971Z,29.00
2023-04-09T01:31:02.697Z,22.80
2023-04-09T01:36:07.195Z,25.00
2023-04-09T01:41:14.742Z,23.80
2023-04-09T01:46:19.326Z,24.20
2023-04-09T01:51:22.052Z,25.20
2023-04-09T01:56:24.570Z,23.40
2023-04-09T02:01:41.590Z,22.70
2023-04-09T02:06:58.064Z,26.50
2023-04-09T02:12:05.686Z,26.50
2023-04-09T02:17:08.339Z,26.50
2023-04-09T02:22:12.008Z,32.50
2023-04-09T02:27:14.776Z,27.50
2023-04-09T02:32:17.412Z,32.30
2023-04-09T02:37:20.058Z,34.90
2023-04-09T02:42:22.567Z,32.40
2023-04-09T02:47:27.144Z,35.00
2023-04-09T02:52:29.772Z,33.00
2023-04-09T02:57:33.716Z,35.20
2023-04-09T03:02:36.473Z,34.00
2023-04-09T03:07:39.125Z,28.70
2023-04-09T03:12:44.391Z,35.20
2023-04-09T03:17:46.953Z,30.80
2023-04-09T03:22:49.590Z,25.70
2023-04-09T03:27:52.260Z,28.40
2023-04-09T03:32:54.880Z,27.90
2023-04-09T03:37:57.419Z,27.80
2023-04-09T03:42:59.918Z,23.60
2023-04-09T03:48:02.542Z,24.60
2023-04-09T03:53:05.373Z,23.20
2023-04-09T03:58:07.854Z,21.10
2023-04-09T04:03:12.371Z,15.60
2023-04-09T04:08:15.099Z,20.90
2023-04-09T04:13:17.684Z,22.50
2023-04-09T04:18:20.176Z,18.30
2023-04-09T04:23:22.915Z,19.40
2023-04-09T04:28:25.506Z,23.80
2023-04-09T04:33:28.114Z,17.60
2023-04-09T04:38:30.686Z,22.10
2023-04-09T04:43:33.543Z,22.90
2023-04-09T04:48:36.164Z,22.40
2023-04-09T04:53:38.744Z,17.50
2023-04-09T04:58:42.249Z,21.70
2023-04-09T05:03:44.919Z,25.20
2023-04-09T05:08:47.528Z,20.10
2023-04-09T05:13:50.439Z,12.90
2023-04-09T05:18:53.180Z,22.80
2023-04-09T05:23:55.942Z,27.00
2023-04-09T05:28:58.533Z,20.80
2023-04-09T05:34:01.169Z,19.60
2023-04-09T05:39:03.849Z,16.80
2023-04-09T05:44:06.454Z,20.00
2023-04-09T05:49:09.095Z,19.00
2023-04-09T05:54:11.632Z,20.40
2023-04-09T05:59:14.142Z,20.10
2023-04-09T06:04:16.913Z,13.90
2023-04-09T06:09:19.822Z,16.30
2023-04-09T06:14:22.341Z,15.60
2023-04-09T06:19:24.924Z,8.10
2023-04-09T06:24:27.472Z,10.90
2023-04-09T06:29:30.227Z,9.90
2023-04-09T06:34:32.734Z,11.30
2023-04-09T06:39:35.325Z,11.30
2023-04-09T06:44:37.904Z,9.90
2023-04-09T06:49:40.444Z,9.20
2023-04-09T06:54:42.963Z,11.50
2023-04-09T06:59:45.530Z,9.80
2023-04-09T07:04:48.158Z,17.10
2023-04-09T07:09:51.290Z,13.90
2023-04-09T07:15:00.668Z,11.80
2023-04-09T07:20:04.073Z,10.30
2023-04-09T07:25:07.448Z,14.20
2023-04-09T07:30:10.850Z,13.80
2023-04-09T07:35:13.417Z,10.60
2023-04-09T07:40:16.377Z,13.00
2023-04-09T07:45:19.297Z,13.00
2023-04-09T07:50:22.080Z,14.10
2023-04-09T07:55:24.690Z,15.20
2023-04-09T08:00:27.227Z,12.60
2023-04-09T08:05:30.751Z,12.00
2023-04-09T08:10:33.288Z,17.50
2023-04-09T08:15:36.198Z,13.40
2023-04-09T08:20:44.784Z,11.20
2023-04-09T08:25:47.455Z,15.90
2023-04-09T08:30:50.075Z,14.40
2023-04-09T08:35:52.619Z,13.70
2023-04-09T08:40:55.347Z,12.40
2023-04-09T08:45:59.499Z,13.40
2023-04-09T08:51:02.356Z,13.20
2023-04-09T08:56:05.348Z,12.00
2023-04-09T09:01:21.884Z,16.90
2023-04-09T09:06:30.099Z,14.40
2023-04-09T09:11:34.473Z,14.30
2023-04-09T09:16:42.683Z,14.80
2023-04-09T09:21:56.674Z,13.20
2023-04-09T09:26:59.685Z,12.60
2023-04-09T09:32:02.231Z,12.40
2023-04-09T09:37:28.202Z,12.00
2023-04-09T09:47:34.706Z,14.40
2023-04-09T09:52:39.313Z,13.00
2023-04-09T09:57:44.718Z,10.90
2023-04-09T10:02:56.634Z,7.70
2023-04-09T10:08:00.424Z,11.30
2023-04-09T10:13:06.050Z,14.20
2023-04-09T10:18:08.954Z,10.20
2023-04-09T10:23:19.598Z,12.70
2023-04-09T10:28:23.237Z,12.00
2023-04-09T10:33:28.103Z,13.70
2023-04-09T10:38:37.521Z,10.90
2023-04-09T10:43:41.123Z,11.70
2023-04-09T10:48:44.276Z,14.90
2023-04-09T10:53:46.798Z,11.00
2023-04-09T10:58:49.434Z,10.70
2023-04-09T11:04:10.740Z,11.00
2023-04-09T11:09:13.559Z,10.80
2023-04-09T11:14:20.411Z,11.80
2023-04-09T11:19:23.171Z,13.00
2023-04-09T11:24:25.701Z,14.00
2023-04-09T11:29:28.242Z,11.60
2023-04-09T11:34:33.958Z,9.90
2023-04-09T11:39:37.291Z,13.00
2023-04-09T11:44:41.047Z,10.60
2023-04-09T11:49:46.643Z,13.00
2023-04-09T11:54:50.221Z,12.70
2023-04-09T11:59:52.772Z,14.40
2023-04-09T12:04:55.633Z,10.90
2023-04-09T12:10:03.889Z,11.70
2023-04-09T12:15:19.566Z,11.10
2023-04-09T12:20:35.229Z,10.80
2023-04-09T12:25:41.025Z,12.10
2023-04-09T12:30:44.363Z,14.60
2023-04-09T12:35:47.127Z,8.30
2023-04-09T12:40:49.741Z,10.30
2023-04-09T12:45:53.034Z,11.80
2023-04-09T12:50:55.900Z,14.00
2023-04-09T12:55:59.227Z,9.40
2023-04-09T13:01:04.068Z,11.50
2023-04-09T13:06:06.987Z,11.40
2023-04-09T13:11:09.611Z,10.50
2023-04-09T13:16:12.283Z,9.20
2023-04-09T13:21:18.762Z,10.70
2023-04-09T13:26:21.620Z,8.90
2023-04-09T13:31:25.154Z,10.60
2023-04-09T13:36:27.879Z,9.10
2023-04-09T13:41:33.976Z,9.10
2023-04-09T13:46:36.724Z,7.40
2023-04-09T13:51:39.962Z,9.00
2023-04-09T13:56:42.498Z,7.70
2023-04-09T14:01:45.404Z,8.50
2023-04-09T14:06:47.988Z,8.50
2023-04-09T14:11:50.955Z,11.30
2023-04-09T14:16:54.004Z,9.10
2023-04-09T14:21:56.594Z,10.90
2023-04-09T14:26:59.467Z,11.50
2023-04-09T14:32:02.396Z,17.20
2023-04-09T14:37:05.031Z,14.30
2023-04-09T14:42:07.622Z,15.40
2023-04-09T14:47:10.308Z,17.30
2023-04-09T14:52:12.949Z,18.40
2023-04-09T14:57:15.542Z,20.00
2023-04-09T15:02:18.224Z,18.20
2023-04-09T15:07:22.818Z,17.20
2023-04-09T15:12:28.281Z,20.50
2023-04-09T15:17:30.869Z,16.50
2023-04-09T15:22:33.507Z,19.30
2023-04-09T15:27:36.120Z,15.10
2023-04-09T15:32:38.691Z,14.70
2023-04-09T15:37:41.693Z,14.20
2023-04-09T15:42:44.437Z,12.50
2023-04-09T15:47:47.092Z,12.00
2023-04-09T15:52:49.872Z,12.50
2023-04-09T15:57:53.022Z,12.10
2023-04-09T16:02:55.704Z,12.30
2023-04-09T16:07:59.934Z,13.90
2023-04-09T16:13:03.487Z,13.80
2023-04-09T16:18:06.212Z,12.80
2023-04-09T16:23:08.835Z,11.60
2023-04-09T16:28:11.601Z,12.60
2023-04-09T16:33:14.276Z,10.70
2023-04-09T16:38:17.081Z,9.10
2023-04-09T16:43:19.678Z,12.80
2023-04-09T16:48:22.382Z,8.40
2023-04-09T16:53:25.655Z,9.80
2023-04-09T16:58:28.945Z,11.50
2023-04-09T17:03:31.977Z,12.60
2023-04-09T17:08:35.305Z,15.20
2023-04-09T17:13:38.117Z,13.00
2023-04-09T17:18:41.421Z,12.40
2023-04-09T17:23:44.875Z,15.80
2023-04-09T17:28:47.643Z,11.40
2023-04-09T17:33:50.333Z,12.40
2023-04-09T17:38:53.529Z,14.20
2023-04-09T17:43:56.218Z,14.70
2023-04-09T17:48:58.867Z,13.70
2023-04-09T17:54:01.423Z,15.70
2023-04-09T17:59:03.984Z,16.40
2023-04-09T18:04:06.895Z,14.20
2023-04-09T18:09:10.022Z,11.60
2023-04-09T18:14:13.143Z,13.60
2023-04-09T18:19:15.989Z,16.00
2023-04-09T18:24:18.930Z,10.70
2023-04-09T18:29:21.834Z,12.80
2023-04-09T18:34:25.780Z,16.40
2023-04-09T18:39:30.724Z,20.60
2023-04-09T18:44:37.505Z,19.90
2023-04-09T18:49:40.491Z,18.00
2023-04-09T18:54:43.360Z,19.40
2023-04-09T18:59:46.591Z,21.40
2023-04-09T19:04:49.341Z,21.10
2023-04-09T19:09:52.145Z,18.10
2023-04-09T19:14:54.820Z,18.00
2023-04-09T19:19:57.946Z,18.70
2023-04-09T19:25:01.033Z,20.90
2023-04-09T19:30:04.485Z,13.30
2023-04-09T19:35:08.341Z,13.10
2023-04-09T19:40:11.461Z,13.90
2023-04-09T19:45:14.037Z,14.10
2023-04-09T19:50:16.862Z,18.70
2023-04-09T19:55:19.453Z,16.10
2023-04-09T20:00:22.198Z,15.00
2023-04-09T20:05:25.074Z,16.10
2023-04-09T20:10:27.670Z,13.20
2023-04-09T20:15:30.194Z,13.00
2023-04-09T20:20:32.974Z,15.00
2023-04-09T20:25:36.651Z,15.30
2023-04-09T20:30:39.268Z,13.60
2023-04-09T20:35:41.923Z,12.50
2023-04-09T20:40:44.500Z,12.00
2023-04-09T20:45:47.442Z,11.80
2023-04-09T20:50:50.584Z,14.70
2023-04-09T20:55:54.532Z,16.90
2023-04-09T21:01:09.114Z,15.30
2023-04-09T21:06:11.642Z,13.70
2023-04-09T21:11:14.814Z,15.90
2023-04-09T21:16:17.600Z,22.10
2023-04-09T21:21:20.487Z,22.50
2023-04-09T21:26:24.915Z,18.10
2023-04-09T21:31:27.507Z,21.80
2023-04-09T21:36:30.362Z,16.20
2023-04-09T21:41:32.904Z,17.10
2023-04-09T21:46:36.945Z,16.40
2023-04-09T21:51:39.787Z,18.20
2023-04-09T21:56:42.281Z,17.60
2023-04-09T22:01:46.922Z,16.40
2023-04-09T22:06:50.830Z,20.50
2023-04-09T22:11:53.685Z,20.10
2023-04-09T22:16:58.174Z,19.00
2023-04-09T22:22:00.938Z,16.80
2023-04-09T22:27:03.647Z,16.30
2023-04-09T22:32:06.234Z,16.40
2023-04-09T22:37:08.753Z,17.40
2023-04-09T22:42:12.056Z,15.20
2023-04-09T22:47:14.605Z,13.30
2023-04-09T22:52:17.110Z,13.60
2023-04-09T22:57:19.754Z,14.60
2023-04-09T23:02:22.384Z,14.10
2023-04-09T23:07:24.990Z,10.60
2023-04-09T23:12:27.474Z,13.50
2023-04-09T23:17:30.321Z,10.60
2023-04-09T23:22:32.836Z,13.40
2023-04-09T23:27:35.456Z,15.90
2023-04-09T23:32:37.949Z,13.40
2023-04-09T23:37:42.534Z,14.70
2023-04-09T23:42:45.709Z,15.50
2023-04-09T23:47:48.265Z,9.90
2023-04-09T23:52:51.438Z,12.70
2023-04-09T23:57:53.972Z,12.90
